Latest Weather Observations for Marion Reef

IDQ60801

Issued at 11:32 am EST Saturday 20 December 2014 (issued every 30 minutes, with the page automatically refreshed every 10 minutes)

About weather observations | Map of weather stations | Latest weather observations for QLD | Other Formats
Station Details ID: 200704 Name: MARION REEF Lat: -19.10 Lon: 152.39 Height: 2.0 m
Data from the previous 72 hours. | See also: Recent months for locations in Queensland
Date/Time
EST
Temp
°C
App
Temp
°C
Dew
Point
Rel
Hum
%
Delta-T
°C
Wind Press
QNH
hPa
Press
MSL
hPa
Rain
since 9 am
mm
Dir
 
Spd
km/h
Gust
km/h
Spd
kts
Gust
kts
20/11:30am 27.6 - - - - ESE 15 19 8 10 1011.7 - -
20/11:00am 27.8 - - - - ESE 17 20 9 11 1011.8 1011.7 -
20/10:30am 27.8 - - - - ESE 15 19 8 10 1012.0 - -
20/10:00am 27.4 - - - - ESE 15 19 8 10 1011.9 1011.8 -
20/09:30am 27.6 - - - - E 15 19 8 10 1011.9 - -
20/09:00am 27.6 - - - - E 15 17 8 9 1011.9 1011.8 -
20/08:30am 27.8 - - - - ESE 13 17 7 9 1011.8 - -
20/08:00am 27.4 - - - - ESE 17 20 9 11 1011.6 1011.6 -
20/07:30am 27.2 - - - - E 15 20 8 11 1011.4 - -
20/07:00am 27.4 - - - - E 15 20 8 11 1011.4 1011.3 -
20/06:30am 27.3 - - - - ESE 15 17 8 9 1011.3 - -
20/06:00am 27.3 - - - - ESE 17 20 9 11 1011.1 1011.0 -
20/05:30am 27.0 - - - - ESE 19 20 10 11 1010.7 - -
20/05:00am 27.1 - - - - E 15 19 8 10 1010.5 1010.4 -
20/04:30am 27.2 - - - - ESE 13 15 7 8 1010.4 - -
20/04:00am 27.1 - - - - E 17 20 9 11 1010.0 1009.9 -
20/03:30am 27.1 - - - - SE 13 17 7 9 1010.1 - -
20/03:00am 27.0 - - - - SE 13 17 7 9 1010.2 1010.2 -
20/02:30am 27.3 - - - - SE 15 19 8 10 1010.2 - -
20/02:00am 27.1 - - - - SE 13 15 7 8 1010.3 1010.2 -
20/01:30am 27.1 - - - - SE 13 17 7 9 1010.5 - -
20/01:00am 27.2 - - - - SE 13 17 7 9 1010.6 1010.4 -
20/12:30am 27.1 - - - - SE 13 17 7 9 1011.0 - -
20/12:00am 27.2 - - - - SE 15 17 8 9 1011.4 1011.3 -
 
Date/Time
EST
Temp
°C
App
Temp
°C
Dew
Point
Rel
Hum
%
Delta-T
°C
Wind Press
QNH
hPa
Press
MSL
hPa
Rain
since 9 am
mm
Dir
 
Spd
km/h
Gust
km/h
Spd
kts
Gust
kts
19/11:30pm 27.2 - - - - ESE 15 17 8 9 1011.8 - -
19/11:00pm 27.3 - - - - SE 13 17 7 9 1012.3 1012.1 -
19/10:30pm 27.3 - - - - SSE 13 17 7 9 1012.4 - -
19/10:00pm 27.3 - - - - SSE 15 19 8 10 1012.6 1012.4 -
19/09:30pm 27.3 - - - - SE 15 19 8 10 1012.5 - -
19/09:00pm 27.3 - - - - SE 13 17 7 9 1012.2 1012.1 -
19/08:30pm 27.3 - - - - SSE 13 17 7 9 1012.1 - -
19/08:00pm 27.2 - - - - SSE 13 17 7 9 1011.9 1011.8 -
19/07:30pm 27.5 - - - - SSE 11 15 6 8 1011.6 - -
19/07:00pm 27.5 - - - - SSE 13 17 7 9 1011.4 1011.4 -
19/06:30pm 27.5 - - - - SSE 9 11 5 6 1011.3 - -
19/06:00pm 27.5 - - - - SSE 11 13 6 7 1010.8 1010.8 -
19/05:30pm 27.4 - - - - S 13 15 7 8 1010.5 - -
19/05:00pm 27.7 - - - - S 9 13 5 7 1010.4 1010.3 -
19/04:30pm 28.1 - - - - S 6 7 3 4 1010.3 - -
19/04:00pm 28.4 - - - - S 4 7 2 4 1010.2 1010.1 -
19/03:30pm 29.1 - - - - SSW 4 7 2 4 1010.3 - -
19/03:00pm 29.7 - - - - S 4 7 2 4 1010.1 1010.0 -
19/02:30pm 28.8 - - - - SE 7 9 4 5 1010.2 - -
19/02:00pm 28.3 - - - - NE 11 13 6 7 1010.5 1010.3 -
19/01:30pm 27.9 - - - - SE 7 11 4 6 1010.9 - -
19/01:00pm 28.8 - - - - E 9 11 5 6 1010.9 1010.8 -
19/12:30pm 28.1 - - - - ESE 9 13 5 7 1011.1 - -
19/12:00pm 28.0 - - - - E 13 19 7 10 1010.9 1010.8 -
19/11:30am 27.9 - - - - ENE 15 19 8 10 1011.2 - -
19/11:00am 28.2 - - - - E 13 15 7 8 1011.6 1011.4 -
19/10:30am 29.0 - - - - E 11 15 6 8 1012.0 - -
19/10:00am 28.5 - - - - ENE 15 17 8 9 1011.8 1011.6 -
19/09:30am 27.9 - - - - E 13 17 7 9 1012.0 - -
19/09:00am 27.8 - - - - SE 7 11 4 6 1012.2 1011.9 -
19/08:30am 27.6 - - - - E 13 15 7 8 1012.1 - -
19/08:00am 27.6 - - - - E 13 15 7 8 1012.0 1012.0 -
19/07:30am 27.5 - - - - ESE 9 13 5 7 1012.2 - -
19/07:00am 27.4 - - - - S 2 7 1 4 1012.6 1012.5 -
19/06:30am 27.2 - - - - E 13 17 7 9 1011.8 - -
19/06:00am 26.8 - - - - E 15 17 8 9 1011.6 1011.4 -
19/05:30am 26.9 - - - - E 13 17 7 9 1011.6 - -
19/05:00am 26.7 - - - - E 13 17 7 9 1011.3 1011.3 -
19/04:30am 26.8 - - - - ENE 17 20 9 11 1010.9 - -
19/04:00am 26.6 - - - - E 17 20 9 11 1010.8 1010.7 -
19/03:30am 26.7 - - - - E 17 20 9 11 1010.8 - -
19/03:00am 26.8 - - - - E 17 20 9 11 1010.9 1010.8 -
19/02:30am 26.8 - - - - E 15 17 8 9 1011.0 - -
19/02:00am 26.9 - - - - E 13 17 7 9 1011.1 1011.0 -
19/01:30am 26.7 - - - - E 13 15 7 8 1011.3 - -
19/01:00am 26.9 - - - - E 13 17 7 9 1011.7 1011.6 -
19/12:30am 27.0 - - - - E 13 17 7 9 1012.1 - -
19/12:00am 27.1 - - - - E 13 17 7 9 1012.2 1012.1 -
 
Date/Time
EST
Temp
°C
App
Temp
°C
Dew
Point
Rel
Hum
%
Delta-T
°C
Wind Press
QNH
hPa
Press
MSL
hPa
Rain
since 9 am
mm
Dir
 
Spd
km/h
Gust
km/h
Spd
kts
Gust
kts
18/11:30pm 27.0 - - - - E 13 17 7 9 1012.5 - -
18/11:00pm 27.0 - - - - ENE 13 17 7 9 1012.7 1012.6 -
18/10:30pm 27.0 - - - - E 15 17 8 9 1012.9 - -
18/10:00pm 27.1 - - - - E 15 20 8 11 1012.7 1012.7 -
18/09:30pm 26.9 - - - - ESE 13 17 7 9 1012.4 - -
18/09:00pm 27.0 - - - - E 17 22 9 12 1012.2 1012.1 -
18/08:30pm 27.0 - - - - E 20 24 11 13 1011.6 - -
18/08:00pm 26.9 - - - - E 17 20 9 11 1011.4 1011.3 -
18/07:30pm 26.8 - - - - E 19 20 10 11 1011.1 - -
18/07:00pm 26.9 - - - - E 19 24 10 13 1010.9 1010.9 -
18/06:30pm 26.9 - - - - E 19 26 10 14 1010.4 - -
18/06:00pm 27.0 - - - - E 17 22 9 12 1010.3 1010.3 -
18/05:30pm 27.1 - - - - ENE 17 22 9 12 1010.2 - -
18/05:00pm 27.2 - - - - E 15 19 8 10 1009.9 1009.8 -
18/04:30pm 27.1 - - - - ESE 15 19 8 10 1010.1 - -
18/04:00pm 27.2 - - - - ESE 13 15 7 8 1010.2 1010.0 -
18/03:30pm 27.3 - - - - ESE 13 17 7 9 1010.2 - -
18/03:00pm 27.2 - - - - ESE 13 17 7 9 1010.4 1010.3 -
18/02:30pm 27.3 - - - - E 15 17 8 9 1010.6 - -
18/02:00pm 27.4 - - - - E 13 17 7 9 1010.9 1010.8 -
18/01:30pm 27.2 - - - - E 15 17 8 9 1011.4 - -
18/01:00pm 27.3 - - - - E 13 17 7 9 1011.7 1011.5 -
18/12:30pm 27.5 - - - - ESE 9 13 5 7 1012.1 - -
18/12:00pm 27.7 - - - - ESE 11 13 6 7 1012.2 1012.1 -
18/11:30am 27.5 - - - - E 13 17 7 9 1012.4 - -
18/11:00am 27.6 - - - - E 13 15 7 8 1012.7 1012.6 -
18/10:30am 28.0 - - - - E 13 15 7 8 1012.8 - -
18/10:00am 27.5 - - - - ENE 15 19 8 10 1012.6 1012.6 -
18/09:30am 27.5 - - - - E 15 17 8 9 1012.9 - -
18/09:00am 27.5 - - - - ENE 17 20 9 11 1012.9 1012.8 -
18/08:30am 27.4 - - - - ENE 15 19 8 10 1012.9 - -
18/08:00am 27.4 - - - - NE 17 20 9 11 1012.9 1012.8 -
18/07:30am 27.4 - - - - ENE 15 19 8 10 1012.8 - -
18/07:00am 27.5 - - - - ENE 15 24 8 13 1012.5 1012.5 -
18/06:30am 27.4 - - - - E 15 19 8 10 1012.4 - -
18/06:00am 26.9 - - - - E 15 20 8 11 1011.9 1011.8 -
18/05:30am 26.7 - - - - ENE 17 20 9 11 1011.4 - -
18/05:00am 26.7 - - - - E 15 20 8 11 1011.0 1011.0 -
18/04:30am 26.6 - - - - E 15 20 8 11 1010.8 - -
18/04:00am 26.5 - - - - E 15 20 8 11 1010.6 1010.4 -
18/03:30am 26.6 - - - - E 13 15 7 8 1010.4 - -
18/03:00am 26.7 - - - - E 13 17 7 9 1010.3 1010.2 -
18/02:30am 26.7 - - - - E 15 19 8 10 1010.2 - -
18/02:00am 26.8 - - - - ENE 17 20 9 11 1010.1 1010.1 -
18/01:30am 26.7 - - - - E 17 20 9 11 1010.2 - -
18/01:00am 26.9 - - - - E 17 20 9 11 1010.6 1010.4 -
18/12:30am 26.9 - - - - ENE 17 20 9 11 1010.5 - -
18/12:00am 27.0 - - - - ENE 17 20 9 11 1010.8 1010.6 -
 
Date/Time
EST
Temp
°C
App
Temp
°C
Dew
Point
Rel
Hum
%
Delta-T
°C
Wind Press
QNH
hPa
Press
MSL
hPa
Rain
since 9 am
mm
Dir
 
Spd
km/h
Gust
km/h
Spd
kts
Gust
kts
17/11:30pm 27.0 - - - - ENE 13 15 7 8 1010.9 - -
17/11:00pm 26.9 - - - - ENE 17 19 9 10 1010.8 1010.7 -
17/10:30pm 27.1 - - - - ENE 13 17 7 9 1010.7 - -
17/10:00pm 27.1 - - - - ENE 11 15 6 8 1010.9 1010.9 -
17/09:30pm 27.1 - - - - E 11 15 6 8 1010.6 - -
17/09:00pm 27.0 - - - - E 13 15 7 8 1010.5 1010.4 -
17/08:30pm 27.2 - - - - ESE 9 13 5 7 1010.5 - -
17/08:00pm 27.1 - - - - E 9 13 5 7 1010.3 1010.2 -
17/07:30pm 27.2 - - - - E 11 15 6 8 1010.1 - -
17/07:00pm 27.1 - - - - ESE 9 11 5 6 1009.8 1009.8 -
17/06:30pm 27.4 - - - - SE 7 11 4 6 1009.7 - -
17/06:00pm 27.7 - - - - E 9 13 5 7 1009.2 1009.1 -
17/05:30pm 28.1 - - - - S 2 9 1 5 1008.8 - -
17/05:00pm 29.1 - - - - CALM 0 0 0 0 1008.7 1008.7 -
17/04:30pm 29.6 - - - - CALM 0 6 0 3 1008.6 - -
17/04:00pm 29.6 - - - - SSW 4 7 2 4 1008.5 1008.4 -
17/03:30pm 29.0 - - - - SSW 4 7 2 4 1008.6 - -
17/03:00pm 29.7 - - - - SSW 2 7 1 4 1008.7 1008.6 -
17/02:30pm 29.7 - - - - SSW 2 7 1 4 1008.7 - -
17/02:00pm 29.1 - - - - CALM 0 6 0 3 1008.9 1008.7 -
17/01:30pm 29.2 - - - - SSW 4 7 2 4 1009.3 - -
17/01:00pm 29.3 - - - - SSW 2 6 1 3 1009.4 1009.3 -
17/12:30pm 30.3 - - - - CALM 0 0 0 0 1009.7 - -
17/12:00pm 29.6 - - - - S 4 7 2 4 1009.6 1009.5 -

Other Formats:

Comma delimited format used in spreadsheet applications
http://www.bom.gov.au/fwo/IDQ60801/IDQ60801.94298.axf

JavaScript Object Notation format (JSON) in row-major order
http://www.bom.gov.au/fwo/IDQ60801/IDQ60801.94298.json